Southeast Texas Regional Airport Beaumont,Port Arthur US
ICAO: KBPT
IATA: BPT
Category: Medium
Scheduled Services: Yes

Elevation: 15 ft
TransAlt. 18000 ft.

Airport Communications:
BEAUMONT APP/DEP:121.3
ATIS:126.3
CLNC DEL:118.3
CTAF:119.5
GND:121.9
MONTGOMERY CO RDO:122.2
BEAUMONT TWR:119.5
UNICOM:122.95

KBPT Zoom In..

Runways:

(A) RW 12 length 6750 ft width 150 ft
ILS 110.15 / hdg 116

(B) RW 16 length 5070 ft width 150 ft
---- / hdg 161

(C) RW 30 length 6750 ft width 150 ft
---- / hdg 296

(D) RW 34 length 5070 ft width 150 ft
---- / hdg 341

Location; KBPT
Day. 21 / Time. 23.53 Zulu
* Altimeter: 29.95
* Temperature: 18° c. 64.4°f.
* Wind from: 130° Speed 10 kn.
Dewpoint: 17° c.
Visibility: 10 Statute Miles.
Clouds: Broken 800 ft.
Clouds: Overcast 1500 ft.

KBPT 212353Z 13010KT 10SM BKN008 OVC015 18/17 A2995 RMK AO2 CIG 006V010 SLP142 T01830167 10233 20183 53002


Wind From 130°
Speed 10 kn.

jpsM music video
CHECK IT OUT

jpsM - It Moves..

 
jpsmedia.com for Web Design  worldairports.se 2018   terms of use